sensor_id;sensor_type;location;lat;lon;timestamp;P1;durP1;ratioP1;P2;durP2;ratioP2
78013;SDS011;67222;50.182;8.734;2024-01-11T05:32:57;24.45;;;10.73;;
78013;SDS011;67222;50.182;8.734;2024-01-11T05:35:23;21.23;;;11.13;;
78013;SDS011;67222;50.182;8.734;2024-01-11T05:37:49;22.88;;;10.23;;
78013;SDS011;67222;50.182;8.734;2024-01-11T05:40:15;22.45;;;9.23;;
78013;SDS011;67222;50.182;8.734;2024-01-11T05:42:40;27.30;;;11.40;;
78013;SDS011;67222;50.182;8.734;2024-01-11T05:45:05;25.73;;;10.27;;
78013;SDS011;67222;50.182;8.734;2024-01-11T05:47:31;18.92;;;9.10;;
78013;SDS011;67222;50.182;8.734;2024-01-11T05:49:56;24.03;;;10.10;;
78013;SDS011;67222;50.182;8.734;2024-01-11T05:52:22;25.35;;;10.15;;
78013;SDS011;67222;50.182;8.734;2024-01-11T05:54:47;24.60;;;10.57;;
78013;SDS011;67222;50.182;8.734;2024-01-11T05:57:12;22.10;;;10.68;;
78013;SDS011;67222;50.182;8.734;2024-01-11T05:59:42;28.93;;;11.70;;
78013;SDS011;67222;50.182;8.734;2024-01-11T06:02:08;27.55;;;11.30;;
78013;SDS011;67222;50.182;8.734;2024-01-11T06:04:33;23.37;;;11.43;;
78013;SDS011;67222;50.182;8.734;2024-01-11T06:06:59;22.13;;;9.77;;
78013;SDS011;67222;50.182;8.734;2024-01-11T06:09:24;23.83;;;10.53;;
78013;SDS011;67222;50.182;8.734;2024-01-11T06:11:49;28.90;;;10.30;;
78013;SDS011;67222;50.182;8.734;2024-01-11T06:14:15;23.60;;;9.90;;
78013;SDS011;67222;50.182;8.734;2024-01-11T06:16:40;24.80;;;9.60;;
78013;SDS011;67222;50.182;8.734;2024-01-11T06:19:05;30.30;;;10.13;;
78013;SDS011;67222;50.182;8.734;2024-01-11T06:21:32;22.95;;;11.00;;
78013;SDS011;67222;50.182;8.734;2024-01-11T06:23:57;20.67;;;10.03;;
78013;SDS011;67222;50.182;8.734;2024-01-11T06:26:22;26.00;;;11.50;;
78013;SDS011;67222;50.182;8.734;2024-01-11T06:28:48;26.05;;;9.75;;
78013;SDS011;67222;50.182;8.734;2024-01-11T06:31:13;23.27;;;10.75;;
78013;SDS011;67222;50.182;8.734;2024-01-11T06:33:39;25.25;;;10.27;;
78013;SDS011;67222;50.182;8.734;2024-01-11T06:36:04;25.15;;;11.40;;
78013;SDS011;67222;50.182;8.734;2024-01-11T06:38:31;26.63;;;12.43;;
78013;SDS011;67222;50.182;8.734;2024-01-11T06:40:56;21.77;;;9.77;;
78013;SDS011;67222;50.182;8.734;2024-01-11T06:43:22;21.40;;;9.88;;
78013;SDS011;67222;50.182;8.734;2024-01-11T06:45:47;25.27;;;10.32;;
78013;SDS011;67222;50.182;8.734;2024-01-11T06:48:12;26.73;;;10.20;;
78013;SDS011;67222;50.182;8.734;2024-01-11T06:50:38;24.27;;;10.77;;
78013;SDS011;67222;50.182;8.734;2024-01-11T06:53:03;23.27;;;11.80;;
78013;SDS011;67222;50.182;8.734;2024-01-11T06:55:30;32.20;;;13.07;;
78013;SDS011;67222;50.182;8.734;2024-01-11T06:57:55;26.10;;;12.37;;
78013;SDS011;67222;50.182;8.734;2024-01-11T07:00:22;24.52;;;11.13;;
78013;SDS011;67222;50.182;8.734;2024-01-11T07:02:48;25.27;;;11.98;;
78013;SDS011;67222;50.182;8.734;2024-01-11T07:05:13;22.00;;;11.50;;
78013;SDS011;67222;50.182;8.734;2024-01-11T07:07:39;28.30;;;12.25;;
78013;SDS011;67222;50.182;8.734;2024-01-11T07:10:04;27.77;;;12.65;;
78013;SDS011;67222;50.182;8.734;2024-01-11T07:12:30;27.13;;;11.73;;
78013;SDS011;67222;50.182;8.734;2024-01-11T07:14:56;26.02;;;12.68;;
78013;SDS011;67222;50.182;8.734;2024-01-11T07:17:21;25.13;;;11.60;;
78013;SDS011;67222;50.182;8.734;2024-01-11T07:19:47;34.67;;;11.00;;
78013;SDS011;67222;50.182;8.734;2024-01-11T07:22:13;27.13;;;11.57;;
78013;SDS011;67222;50.182;8.734;2024-01-11T07:24:38;30.70;;;12.67;;
78013;SDS011;67222;50.182;8.734;2024-01-11T07:27:04;28.17;;;11.95;;
78013;SDS011;67222;50.182;8.734;2024-01-11T07:29:30;27.17;;;10.85;;
78013;SDS011;67222;50.182;8.734;2024-01-11T07:31:55;23.48;;;10.80;;
78013;SDS011;67222;50.182;8.734;2024-01-11T07:34:21;26.15;;;11.63;;
78013;SDS011;67222;50.182;8.734;2024-01-11T07:36:46;27.53;;;10.63;;
78013;SDS011;67222;50.182;8.734;2024-01-11T07:39:11;26.30;;;10.87;;
78013;SDS011;67222;50.182;8.734;2024-01-11T07:41:37;25.17;;;11.05;;
78013;SDS011;67222;50.182;8.734;2024-01-11T07:44:02;28.40;;;11.73;;
78013;SDS011;67222;50.182;8.734;2024-01-11T07:46:28;26.00;;;10.75;;
78013;SDS011;67222;50.182;8.734;2024-01-11T07:48:54;27.95;;;11.27;;
78013;SDS011;67222;50.182;8.734;2024-01-11T07:51:19;30.20;;;11.90;;
78013;SDS011;67222;50.182;8.734;2024-01-11T07:53:45;28.38;;;11.80;;
78013;SDS011;67222;50.182;8.734;2024-01-11T07:56:10;26.08;;;12.98;;
78013;SDS011;67222;50.182;8.734;2024-01-11T07:58:35;24.80;;;12.10;;
78013;SDS011;67222;50.182;8.734;2024-01-11T08:01:02;28.10;;;13.77;;
78013;SDS011;67222;50.182;8.734;2024-01-11T08:03:29;27.67;;;12.20;;
78013;SDS011;67222;50.182;8.734;2024-01-11T08:05:54;24.70;;;12.50;;
78013;SDS011;67222;50.182;8.734;2024-01-11T08:08:20;27.65;;;12.18;;
78013;SDS011;67222;50.182;8.734;2024-01-11T08:10:47;26.73;;;11.63;;
78013;SDS011;67222;50.182;8.734;2024-01-11T08:13:12;28.17;;;11.98;;
78013;SDS011;67222;50.182;8.734;2024-01-11T08:15:38;29.25;;;12.52;;
78013;SDS011;67222;50.182;8.734;2024-01-11T08:18:03;32.38;;;13.13;;
78013;SDS011;67222;50.182;8.734;2024-01-11T08:20:29;31.08;;;12.82;;
78013;SDS011;67222;50.182;8.734;2024-01-11T08:22:55;29.13;;;13.37;;
78013;SDS011;67222;50.182;8.734;2024-01-11T08:25:21;30.05;;;14.45;;
78013;SDS011;67222;50.182;8.734;2024-01-11T08:27:47;32.50;;;11.98;;
78013;SDS011;67222;50.182;8.734;2024-01-11T08:30:13;34.90;;;14.57;;
78013;SDS011;67222;50.182;8.734;2024-01-11T08:32:38;32.20;;;12.98;;
78013;SDS011;67222;50.182;8.734;2024-01-11T08:35:05;31.17;;;12.57;;
78013;SDS011;67222;50.182;8.734;2024-01-11T08:37:31;26.30;;;12.57;;
78013;SDS011;67222;50.182;8.734;2024-01-11T08:39:57;31.88;;;12.98;;
78013;SDS011;67222;50.182;8.734;2024-01-11T08:42:22;29.92;;;13.23;;
78013;SDS011;67222;50.182;8.734;2024-01-11T08:44:48;25.63;;;11.40;;
78013;SDS011;67222;50.182;8.734;2024-01-11T08:47:13;28.30;;;11.93;;
78013;SDS011;67222;50.182;8.734;2024-01-11T08:49:39;27.80;;;11.60;;
78013;SDS011;67222;50.182;8.734;2024-01-11T08:52:04;25.27;;;11.70;;
78013;SDS011;67222;50.182;8.734;2024-01-11T08:54:30;25.48;;;11.57;;
78013;SDS011;67222;50.182;8.734;2024-01-11T08:56:57;27.58;;;11.27;;
78013;SDS011;67222;50.182;8.734;2024-01-11T08:59:23;30.43;;;12.70;;
78013;SDS011;67222;50.182;8.734;2024-01-11T09:01:50;25.98;;;12.43;;
78013;SDS011;67222;50.182;8.734;2024-01-11T09:04:15;26.98;;;12.20;;
78013;SDS011;67222;50.182;8.734;2024-01-11T09:06:42;26.88;;;11.68;;
78013;SDS011;67222;50.182;8.734;2024-01-11T09:09:08;25.73;;;12.85;;
78013;SDS011;67222;50.182;8.734;2024-01-11T09:11:35;27.00;;;13.13;;
78013;SDS011;67222;50.182;8.734;2024-01-11T09:14:00;25.58;;;11.07;;
78013;SDS011;67222;50.182;8.734;2024-01-11T09:16:27;32.08;;;13.45;;
78013;SDS011;67222;50.182;8.734;2024-01-11T09:18:53;28.23;;;12.18;;
78013;SDS011;67222;50.182;8.734;2024-01-11T09:21:18;27.60;;;12.40;;
78013;SDS011;67222;50.182;8.734;2024-01-11T09:23:43;30.40;;;13.07;;
78013;SDS011;67222;50.182;8.734;2024-01-11T09:26:09;29.20;;;11.93;;
78013;SDS011;67222;50.182;8.734;2024-01-11T09:28:35;29.10;;;13.02;;
78013;SDS011;67222;50.182;8.734;2024-01-11T09:31:00;26.75;;;12.20;;
78013;SDS011;67222;50.182;8.734;2024-01-11T09:33:26;31.77;;;12.85;;
78013;SDS011;67222;50.182;8.734;2024-01-11T09:35:52;32.58;;;13.07;;
78013;SDS011;67222;50.182;8.734;2024-01-11T09:38:17;30.63;;;12.67;;
78013;SDS011;67222;50.182;8.734;2024-01-11T09:40:43;29.13;;;13.23;;
78013;SDS011;67222;50.182;8.734;2024-01-11T09:43:08;32.22;;;12.63;;
78013;SDS011;67222;50.182;8.734;2024-01-11T09:45:34;27.73;;;12.50;;
78013;SDS011;67222;50.182;8.734;2024-01-11T09:48:02;31.30;;;13.13;;
78013;SDS011;67222;50.182;8.734;2024-01-11T09:50:29;24.33;;;13.02;;
78013;SDS011;67222;50.182;8.734;2024-01-11T09:52:55;32.95;;;13.77;;
78013;SDS011;67222;50.182;8.734;2024-01-11T09:55:20;29.63;;;13.13;;
78013;SDS011;67222;50.182;8.734;2024-01-11T09:57:46;28.88;;;13.90;;
78013;SDS011;67222;50.182;8.734;2024-01-11T10:00:13;30.90;;;12.43;;
78013;SDS011;67222;50.182;8.734;2024-01-11T10:02:41;32.38;;;14.45;;
78013;SDS011;67222;50.182;8.734;2024-01-11T10:05:07;26.27;;;12.77;;
78013;SDS011;67222;50.182;8.734;2024-01-11T10:07:32;29.25;;;14.30;;
78013;SDS011;67222;50.182;8.734;2024-01-11T10:09:59;31.75;;;14.25;;
78013;SDS011;67222;50.182;8.734;2024-01-11T10:12:26;31.08;;;13.57;;
78013;SDS011;67222;50.182;8.734;2024-01-11T10:14:53;29.20;;;12.60;;
78013;SDS011;67222;50.182;8.734;2024-01-11T10:17:18;24.20;;;12.43;;
78013;SDS011;67222;50.182;8.734;2024-01-11T10:19:44;27.20;;;12.68;;
78013;SDS011;67222;50.182;8.734;2024-01-11T10:22:09;31.00;;;13.43;;
78013;SDS011;67222;50.182;8.734;2024-01-11T10:24:38;34.67;;;14.30;;
78013;SDS011;67222;50.182;8.734;2024-01-11T10:27:08;27.55;;;13.05;;
78013;SDS011;67222;50.182;8.734;2024-01-11T10:29:33;32.42;;;13.13;;
78013;SDS011;67222;50.182;8.734;2024-01-11T10:32:01;30.38;;;13.20;;
78013;SDS011;67222;50.182;8.734;2024-01-11T10:34:28;28.20;;;13.45;;
78013;SDS011;67222;50.182;8.734;2024-01-11T10:36:54;32.60;;;14.52;;
78013;SDS011;67222;50.182;8.734;2024-01-11T10:39:21;33.27;;;14.03;;
78013;SDS011;67222;50.182;8.734;2024-01-11T10:42:05;29.10;;;13.70;;
78013;SDS011;67222;50.182;8.734;2024-01-11T10:44:33;26.85;;;12.85;;
78013;SDS011;67222;50.182;8.734;2024-01-11T10:46:59;33.13;;;13.77;;
78013;SDS011;67222;50.182;8.734;2024-01-11T10:49:26;30.95;;;14.48;;
78013;SDS011;67222;50.182;8.734;2024-01-11T10:52:04;29.70;;;12.80;;
78013;SDS011;67222;50.182;8.734;2024-01-11T10:54:33;28.17;;;12.55;;
78013;SDS011;67222;50.182;8.734;2024-01-11T10:56:59;31.73;;;13.20;;
78013;SDS011;67222;50.182;8.734;2024-01-11T10:59:25;28.52;;;12.55;;
78013;SDS011;67222;50.182;8.734;2024-01-11T11:01:55;28.65;;;13.88;;
78013;SDS011;67222;50.182;8.734;2024-01-11T11:04:23;28.25;;;13.13;;
78013;SDS011;67222;50.182;8.734;2024-01-11T11:06:54;31.13;;;13.05;;
78013;SDS011;67222;50.182;8.734;2024-01-11T11:09:22;32.28;;;13.43;;
78013;SDS011;67222;50.182;8.734;2024-01-11T11:11:47;27.45;;;13.65;;
78013;SDS011;67222;50.182;8.734;2024-01-11T11:14:14;27.67;;;12.23;;
78013;SDS011;67222;50.182;8.734;2024-01-11T11:16:40;29.15;;;14.00;;
78013;SDS011;67222;50.182;8.734;2024-01-11T11:19:06;28.77;;;13.85;;
78013;SDS011;67222;50.182;8.734;2024-01-11T11:21:32;28.85;;;12.82;;
78013;SDS011;67222;50.182;8.734;2024-01-11T11:23:57;31.13;;;13.00;;
78013;SDS011;67222;50.182;8.734;2024-01-11T11:26:22;27.17;;;12.87;;
78013;SDS011;67222;50.182;8.734;2024-01-11T11:28:52;27.02;;;12.75;;
78013;SDS011;67222;50.182;8.734;2024-01-11T11:34:03;28.75;;;12.35;;
78013;SDS011;67222;50.182;8.734;2024-01-11T11:36:29;24.35;;;11.65;;
78013;SDS011;67222;50.182;8.734;2024-01-11T11:38:56;27.45;;;12.25;;
78013;SDS011;67222;50.182;8.734;2024-01-11T11:41:25;22.67;;;11.32;;
78013;SDS011;67222;50.182;8.734;2024-01-11T11:43:51;29.80;;;12.93;;
78013;SDS011;67222;50.182;8.734;2024-01-11T11:46:16;24.13;;;11.65;;
78013;SDS011;67222;50.182;8.734;2024-01-11T11:53:43;20.55;;;10.70;;
78013;SDS011;67222;50.182;8.734;2024-01-11T11:56:10;24.88;;;11.23;;
78013;SDS011;67222;50.182;8.734;2024-01-11T11:58:35;23.00;;;11.10;;
78013;SDS011;67222;50.182;8.734;2024-01-11T12:01:02;25.33;;;12.05;;
78013;SDS011;67222;50.182;8.734;2024-01-11T12:03:29;21.58;;;11.13;;
78013;SDS011;67222;50.182;8.734;2024-01-11T12:05:55;22.67;;;11.48;;
78013;SDS011;67222;50.182;8.734;2024-01-11T12:08:21;23.25;;;11.43;;
78013;SDS011;67222;50.182;8.734;2024-01-11T12:10:47;24.02;;;11.77;;
78013;SDS011;67222;50.182;8.734;2024-01-11T12:13:12;23.83;;;11.38;;
78013;SDS011;67222;50.182;8.734;2024-01-11T12:15:38;24.52;;;12.60;;
78013;SDS011;67222;50.182;8.734;2024-01-11T12:18:03;23.45;;;12.40;;
78013;SDS011;67222;50.182;8.734;2024-01-11T12:20:29;21.02;;;11.05;;
78013;SDS011;67222;50.182;8.734;2024-01-11T12:22:54;23.85;;;13.13;;
78013;SDS011;67222;50.182;8.734;2024-01-11T12:25:20;22.80;;;12.10;;
78013;SDS011;67222;50.182;8.734;2024-01-11T12:27:46;23.92;;;12.15;;
78013;SDS011;67222;50.182;8.734;2024-01-11T12:30:12;21.55;;;11.20;;
78013;SDS011;67222;50.182;8.734;2024-01-11T12:32:41;22.95;;;12.25;;
78013;SDS011;67222;50.182;8.734;2024-01-11T12:35:07;19.98;;;11.80;;
78013;SDS011;67222;50.182;8.734;2024-01-11T12:37:33;23.20;;;12.02;;
78013;SDS011;67222;50.182;8.734;2024-01-11T12:39:58;22.77;;;12.43;;
78013;SDS011;67222;50.182;8.734;2024-01-11T12:42:24;21.38;;;11.68;;
78013;SDS011;67222;50.182;8.734;2024-01-11T12:44:50;22.33;;;12.07;;
78013;SDS011;67222;50.182;8.734;2024-01-11T12:47:16;22.30;;;12.27;;
78013;SDS011;67222;50.182;8.734;2024-01-11T12:49:43;23.45;;;12.30;;
78013;SDS011;67222;50.182;8.734;2024-01-11T12:52:15;21.42;;;11.63;;
78013;SDS011;67222;50.182;8.734;2024-01-11T12:54:46;22.27;;;11.85;;
78013;SDS011;67222;50.182;8.734;2024-01-11T12:57:18;21.23;;;11.90;;
78013;SDS011;67222;50.182;8.734;2024-01-11T12:59:47;23.73;;;11.98;;
78013;SDS011;67222;50.182;8.734;2024-01-11T13:02:14;19.95;;;11.85;;
78013;SDS011;67222;50.182;8.734;2024-01-11T13:04:43;20.58;;;10.95;;
78013;SDS011;67222;50.182;8.734;2024-01-11T13:07:11;23.95;;;12.05;;
78013;SDS011;67222;50.182;8.734;2024-01-11T13:09:37;20.50;;;12.23;;
78013;SDS011;67222;50.182;8.734;2024-01-11T13:12:03;23.35;;;11.55;;
78013;SDS011;67222;50.182;8.734;2024-01-11T13:14:28;22.50;;;11.73;;
78013;SDS011;67222;50.182;8.734;2024-01-11T13:16:53;20.27;;;11.07;;
78013;SDS011;67222;50.182;8.734;2024-01-11T13:19:19;22.50;;;12.93;;
78013;SDS011;67222;50.182;8.734;2024-01-11T13:21:44;23.38;;;10.90;;
78013;SDS011;67222;50.182;8.734;2024-01-11T13:24:10;22.33;;;11.50;;
78013;SDS011;67222;50.182;8.734;2024-01-11T13:26:35;22.37;;;11.37;;
78013;SDS011;67222;50.182;8.734;2024-01-11T13:29:05;24.23;;;11.30;;
78013;SDS011;67222;50.182;8.734;2024-01-11T13:31:31;20.90;;;11.15;;
78013;SDS011;67222;50.182;8.734;2024-01-11T13:33:56;20.88;;;10.48;;
78013;SDS011;67222;50.182;8.734;2024-01-11T13:36:22;23.90;;;11.43;;
78013;SDS011;67222;50.182;8.734;2024-01-11T13:38:48;23.77;;;10.82;;
78013;SDS011;67222;50.182;8.734;2024-01-11T13:41:18;22.17;;;11.57;;
78013;SDS011;67222;50.182;8.734;2024-01-11T13:43:43;21.02;;;10.30;;
78013;SDS011;67222;50.182;8.734;2024-01-11T13:46:09;20.73;;;11.57;;
78013;SDS011;67222;50.182;8.734;2024-01-11T13:48:35;22.10;;;11.52;;
78013;SDS011;67222;50.182;8.734;2024-01-11T13:51:00;23.05;;;10.90;;
78013;SDS011;67222;50.182;8.734;2024-01-11T13:53:28;21.15;;;11.38;;
78013;SDS011;67222;50.182;8.734;2024-01-11T13:55:53;20.55;;;10.32;;
78013;SDS011;67222;50.182;8.734;2024-01-11T13:58:18;23.85;;;10.82;;
78013;SDS011;67222;50.182;8.734;2024-01-11T14:00:44;20.70;;;11.00;;
78013;SDS011;67222;50.182;8.734;2024-01-11T14:03:09;23.00;;;10.43;;
78013;SDS011;67222;50.182;8.734;2024-01-11T14:05:36;21.60;;;10.23;;
78013;SDS011;67222;50.182;8.734;2024-01-11T14:08:02;21.92;;;9.85;;
78013;SDS011;67222;50.182;8.734;2024-01-11T14:10:30;21.80;;;10.63;;
78013;SDS011;67222;50.182;8.734;2024-01-11T14:12:57;18.15;;;8.82;;
78013;SDS011;67222;50.182;8.734;2024-01-11T14:15:22;22.75;;;9.95;;
78013;SDS011;67222;50.182;8.734;2024-01-11T14:17:49;19.00;;;9.05;;
78013;SDS011;67222;50.182;8.734;2024-01-11T14:20:14;18.70;;;9.77;;
78013;SDS011;67222;50.182;8.734;2024-01-11T14:22:40;19.40;;;10.10;;
78013;SDS011;67222;50.182;8.734;2024-01-11T14:25:06;18.83;;;9.55;;
78013;SDS011;67222;50.182;8.734;2024-01-11T14:27:33;19.27;;;9.68;;
78013;SDS011;67222;50.182;8.734;2024-01-11T14:29:58;20.33;;;10.00;;
78013;SDS011;67222;50.182;8.734;2024-01-11T14:32:24;19.43;;;9.20;;
78013;SDS011;67222;50.182;8.734;2024-01-11T14:34:53;18.70;;;8.43;;
78013;SDS011;67222;50.182;8.734;2024-01-11T14:37:18;18.20;;;9.23;;
78013;SDS011;67222;50.182;8.734;2024-01-11T14:39:44;16.17;;;9.10;;
78013;SDS011;67222;50.182;8.734;2024-01-11T14:42:09;18.93;;;9.27;;
78013;SDS011;67222;50.182;8.734;2024-01-11T14:44:35;19.85;;;9.25;;
78013;SDS011;67222;50.182;8.734;2024-01-11T14:47:01;22.70;;;9.70;;
78013;SDS011;67222;50.182;8.734;2024-01-11T14:49:27;18.23;;;9.23;;
78013;SDS011;67222;50.182;8.734;2024-01-11T14:51:53;19.60;;;8.77;;
78013;SDS011;67222;50.182;8.734;2024-01-11T14:54:18;21.10;;;9.47;;
78013;SDS011;67222;50.182;8.734;2024-01-11T14:56:45;20.77;;;8.70;;
78013;SDS011;67222;50.182;8.734;2024-01-11T14:59:11;15.70;;;8.30;;
78013;SDS011;67222;50.182;8.734;2024-01-11T15:01:36;19.83;;;9.07;;
78013;SDS011;67222;50.182;8.734;2024-01-11T15:04:01;18.13;;;9.10;;
78013;SDS011;67222;50.182;8.734;2024-01-11T15:06:27;21.20;;;9.57;;
78013;SDS011;67222;50.182;8.734;2024-01-11T15:08:52;20.07;;;9.27;;
78013;SDS011;67222;50.182;8.734;2024-01-11T15:11:17;19.00;;;10.05;;
78013;SDS011;67222;50.182;8.734;2024-01-11T15:13:43;22.47;;;10.47;;
78013;SDS011;67222;50.182;8.734;2024-01-11T15:16:08;20.23;;;9.87;;
78013;SDS011;67222;50.182;8.734;2024-01-11T15:18:33;20.60;;;9.77;;
78013;SDS011;67222;50.182;8.734;2024-01-11T15:20:58;23.37;;;10.83;;
78013;SDS011;67222;50.182;8.734;2024-01-11T15:23:24;20.83;;;9.40;;
78013;SDS011;67222;50.182;8.734;2024-01-11T15:25:49;20.97;;;9.17;;
78013;SDS011;67222;50.182;8.734;2024-01-11T15:28:14;22.57;;;10.10;;
78013;SDS011;67222;50.182;8.734;2024-01-11T15:30:40;18.80;;;9.20;;
78013;SDS011;67222;50.182;8.734;2024-01-11T15:33:05;17.23;;;9.27;;
78013;SDS011;67222;50.182;8.734;2024-01-11T15:35:30;19.10;;;9.53;;
78013;SDS011;67222;50.182;8.734;2024-01-11T15:37:55;19.47;;;9.37;;
78013;SDS011;67222;50.182;8.734;2024-01-11T15:40:21;18.77;;;9.07;;
78013;SDS011;67222;50.182;8.734;2024-01-11T15:42:46;22.60;;;9.60;;
78013;SDS011;67222;50.182;8.734;2024-01-11T15:45:11;20.37;;;10.47;;
78013;SDS011;67222;50.182;8.734;2024-01-11T15:47:37;17.25;;;8.15;;
78013;SDS011;67222;50.182;8.734;2024-01-11T15:50:03;19.48;;;8.52;;
78013;SDS011;67222;50.182;8.734;2024-01-11T15:52:33;24.63;;;9.77;;
78013;SDS011;67222;50.182;8.734;2024-01-11T15:54:59;20.83;;;9.05;;
78013;SDS011;67222;50.182;8.734;2024-01-11T15:57:25;20.23;;;9.67;;
78013;SDS011;67222;50.182;8.734;2024-01-11T15:59:50;22.77;;;10.40;;
78013;SDS011;67222;50.182;8.734;2024-01-11T16:02:15;23.13;;;10.47;;
78013;SDS011;67222;50.182;8.734;2024-01-11T16:04:41;20.35;;;9.05;;
78013;SDS011;67222;50.182;8.734;2024-01-11T16:07:08;22.73;;;10.27;;
78013;SDS011;67222;50.182;8.734;2024-01-11T16:09:33;20.67;;;9.55;;
78013;SDS011;67222;50.182;8.734;2024-01-11T16:11:59;21.40;;;10.40;;
78013;SDS011;67222;50.182;8.734;2024-01-11T16:14:25;20.95;;;9.20;;
78013;SDS011;67222;50.182;8.734;2024-01-11T16:16:50;23.98;;;10.60;;
78013;SDS011;67222;50.182;8.734;2024-01-11T16:19:15;24.03;;;10.67;;
78013;SDS011;67222;50.182;8.734;2024-01-11T16:21:42;21.77;;;10.27;;
78013;SDS011;67222;50.182;8.734;2024-01-11T16:24:07;23.13;;;9.70;;
78013;SDS011;67222;50.182;8.734;2024-01-11T16:26:33;22.38;;;8.90;;
78013;SDS011;67222;50.182;8.734;2024-01-11T16:28:58;17.93;;;9.23;;
78013;SDS011;67222;50.182;8.734;2024-01-11T16:31:23;21.50;;;9.23;;
78013;SDS011;67222;50.182;8.734;2024-01-11T16:33:49;22.90;;;9.77;;
78013;SDS011;67222;50.182;8.734;2024-01-11T16:36:14;23.23;;;10.60;;
78013;SDS011;67222;50.182;8.734;2024-01-11T16:38:41;25.33;;;10.95;;
78013;SDS011;67222;50.182;8.734;2024-01-11T16:41:07;30.80;;;11.65;;
78013;SDS011;67222;50.182;8.734;2024-01-11T16:43:33;28.85;;;12.32;;
78013;SDS011;67222;50.182;8.734;2024-01-11T16:45:59;27.08;;;11.85;;
78013;SDS011;67222;50.182;8.734;2024-01-11T16:48:24;30.42;;;12.43;;
78013;SDS011;67222;50.182;8.734;2024-01-11T16:50:50;35.63;;;15.32;;
78013;SDS011;67222;50.182;8.734;2024-01-11T16:53:15;41.57;;;18.27;;
78013;SDS011;67222;50.182;8.734;2024-01-11T16:55:42;42.72;;;19.17;;
78013;SDS011;67222;50.182;8.734;2024-01-11T16:58:08;48.35;;;21.05;;
78013;SDS011;67222;50.182;8.734;2024-01-11T17:00:35;45.95;;;19.98;;
78013;SDS011;67222;50.182;8.734;2024-01-11T17:03:01;46.55;;;20.52;;
78013;SDS011;67222;50.182;8.734;2024-01-11T17:05:27;45.13;;;20.95;;
78013;SDS011;67222;50.182;8.734;2024-01-11T17:07:53;52.28;;;21.10;;
78013;SDS011;67222;50.182;8.734;2024-01-11T17:10:18;42.07;;;21.17;;
78013;SDS011;67222;50.182;8.734;2024-01-11T17:12:43;38.63;;;18.13;;
78013;SDS011;67222;50.182;8.734;2024-01-11T17:15:09;37.40;;;17.27;;
78013;SDS011;67222;50.182;8.734;2024-01-11T17:17:34;36.42;;;15.10;;
78013;SDS011;67222;50.182;8.734;2024-01-11T17:20:00;30.75;;;13.98;;
78013;SDS011;67222;50.182;8.734;2024-01-11T17:22:25;29.33;;;14.60;;
78013;SDS011;67222;50.182;8.734;2024-01-11T17:24:50;35.17;;;16.57;;
78013;SDS011;67222;50.182;8.734;2024-01-11T17:27:17;37.63;;;16.90;;
78013;SDS011;67222;50.182;8.734;2024-01-11T17:29:42;35.17;;;17.07;;
78013;SDS011;67222;50.182;8.734;2024-01-11T17:32:07;32.75;;;16.73;;
78013;SDS011;67222;50.182;8.734;2024-01-11T17:34:33;36.22;;;15.65;;
78013;SDS011;67222;50.182;8.734;2024-01-11T17:36:58;35.33;;;16.83;;
78013;SDS011;67222;50.182;8.734;2024-01-11T17:39:23;36.87;;;16.90;;
78013;SDS011;67222;50.182;8.734;2024-01-11T17:41:49;45.42;;;18.38;;
78013;SDS011;67222;50.182;8.734;2024-01-11T17:44:15;46.45;;;19.30;;
78013;SDS011;67222;50.182;8.734;2024-01-11T17:46:40;42.33;;;18.48;;
78013;SDS011;67222;50.182;8.734;2024-01-11T17:49:07;38.35;;;17.30;;
78013;SDS011;67222;50.182;8.734;2024-01-11T17:51:33;31.00;;;15.40;;
78013;SDS011;67222;50.182;8.734;2024-01-11T17:53:58;31.75;;;14.75;;
78013;SDS011;67222;50.182;8.734;2024-01-11T17:56:24;32.83;;;14.87;;
78013;SDS011;67222;50.182;8.734;2024-01-11T17:58:49;28.73;;;13.32;;
78013;SDS011;67222;50.182;8.734;2024-01-11T18:01:24;24.98;;;11.38;;
78013;SDS011;67222;50.182;8.734;2024-01-11T18:03:50;23.92;;;9.43;;
78013;SDS011;67222;50.182;8.734;2024-01-11T18:06:16;21.70;;;10.95;;
78013;SDS011;67222;50.182;8.734;2024-01-11T18:08:42;20.25;;;8.07;;
78013;SDS011;67222;50.182;8.734;2024-01-11T18:11:13;18.20;;;8.60;;
78013;SDS011;67222;50.182;8.734;2024-01-11T18:13:39;15.00;;;8.05;;
78013;SDS011;67222;50.182;8.734;2024-01-11T18:16:05;15.45;;;6.95;;
78013;SDS011;67222;50.182;8.734;2024-01-11T18:18:31;18.23;;;8.20;;
78013;SDS011;67222;50.182;8.734;2024-01-11T18:20:58;14.55;;;7.05;;
78013;SDS011;67222;50.182;8.734;2024-01-11T18:23:23;16.30;;;7.17;;
78013;SDS011;67222;50.182;8.734;2024-01-11T18:25:49;12.45;;;6.30;;
78013;SDS011;67222;50.182;8.734;2024-01-11T18:28:14;16.60;;;7.00;;
78013;SDS011;67222;50.182;8.734;2024-01-11T18:30:39;13.13;;;6.50;;
78013;SDS011;67222;50.182;8.734;2024-01-11T18:33:05;12.13;;;6.43;;
78013;SDS011;67222;50.182;8.734;2024-01-11T18:35:31;14.20;;;6.25;;
78013;SDS011;67222;50.182;8.734;2024-01-11T18:37:56;11.68;;;6.75;;
78013;SDS011;67222;50.182;8.734;2024-01-11T18:40:22;12.43;;;7.38;;
78013;SDS011;67222;50.182;8.734;2024-01-11T18:42:49;14.05;;;6.60;;
78013;SDS011;67222;50.182;8.734;2024-01-11T18:45:14;13.13;;;6.32;;
78013;SDS011;67222;50.182;8.734;2024-01-11T18:47:40;14.68;;;6.75;;
78013;SDS011;67222;50.182;8.734;2024-01-11T18:50:06;13.38;;;5.95;;
78013;SDS011;67222;50.182;8.734;2024-01-11T18:52:31;13.45;;;6.32;;
78013;SDS011;67222;50.182;8.734;2024-01-11T18:54:57;11.50;;;5.77;;
78013;SDS011;67222;50.182;8.734;2024-01-11T18:57:22;13.77;;;6.38;;
78013;SDS011;67222;50.182;8.734;2024-01-11T18:59:48;14.55;;;6.13;;
78013;SDS011;67222;50.182;8.734;2024-01-11T19:02:13;18.02;;;7.10;;
78013;SDS011;67222;50.182;8.734;2024-01-11T19:04:38;13.32;;;6.18;;
78013;SDS011;67222;50.182;8.734;2024-01-11T19:07:04;11.73;;;5.57;;
78013;SDS011;67222;50.182;8.734;2024-01-11T19:09:29;15.15;;;7.30;;
78013;SDS011;67222;50.182;8.734;2024-01-11T19:11:54;15.40;;;7.27;;
78013;SDS011;67222;50.182;8.734;2024-01-11T19:14:23;14.70;;;6.72;;
78013;SDS011;67222;50.182;8.734;2024-01-11T19:16:48;17.25;;;7.05;;
78013;SDS011;67222;50.182;8.734;2024-01-11T19:19:14;16.70;;;7.47;;
78013;SDS011;67222;50.182;8.734;2024-01-11T19:21:39;13.73;;;6.93;;
78013;SDS011;67222;50.182;8.734;2024-01-11T19:24:04;15.20;;;7.00;;
78013;SDS011;67222;50.182;8.734;2024-01-11T19:26:32;14.68;;;7.30;;
78013;SDS011;67222;50.182;8.734;2024-01-11T19:28:57;15.38;;;6.97;;
78013;SDS011;67222;50.182;8.734;2024-01-11T19:31:22;14.03;;;6.20;;
78013;SDS011;67222;50.182;8.734;2024-01-11T19:33:48;20.00;;;7.37;;
78013;SDS011;67222;50.182;8.734;2024-01-11T19:36:13;16.95;;;7.55;;
78013;SDS011;67222;50.182;8.734;2024-01-11T19:38:38;14.87;;;6.47;;
78013;SDS011;67222;50.182;8.734;2024-01-11T19:41:04;18.75;;;7.95;;
78013;SDS011;67222;50.182;8.734;2024-01-11T19:43:30;16.83;;;8.05;;
78013;SDS011;67222;50.182;8.734;2024-01-11T19:45:58;16.15;;;7.55;;
78013;SDS011;67222;50.182;8.734;2024-01-11T19:48:23;15.90;;;7.68;;
78013;SDS011;67222;50.182;8.734;2024-01-11T19:50:49;13.70;;;6.57;;
78013;SDS011;67222;50.182;8.734;2024-01-11T19:53:14;15.52;;;6.63;;
78013;SDS011;67222;50.182;8.734;2024-01-11T19:55:40;17.45;;;6.65;;
78013;SDS011;67222;50.182;8.734;2024-01-11T19:58:06;15.10;;;6.95;;